createdAt,value
2023-05-22T00:28:31.464Z,34.35
2023-05-22T00:30:58.830Z,37.13
2023-05-22T00:33:25.554Z,34.63
2023-05-22T00:35:52.466Z,34.95
2023-05-22T00:38:29.767Z,36.17
2023-05-22T00:40:56.865Z,35.20
2023-05-22T00:43:23.823Z,37.25
2023-05-22T00:45:51.093Z,34.33
2023-05-22T00:48:21.013Z,36.10
2023-05-22T00:50:48.350Z,35.03
2023-05-22T00:53:15.909Z,33.95
2023-05-22T00:55:44.424Z,33.78
2023-05-22T00:58:17.494Z,33.13
2023-05-22T01:00:45.447Z,34.55
2023-05-22T01:03:13.170Z,31.05
2023-05-22T01:05:52.414Z,31.83
2023-05-22T01:08:24.014Z,31.00
2023-05-22T01:11:03.799Z,29.52
2023-05-22T01:13:39.781Z,26.60
2023-05-22T01:16:12.709Z,26.73
2023-05-22T01:18:58.364Z,24.17
2023-05-22T01:21:41.284Z,24.48
2023-05-22T01:24:26.682Z,24.42
2023-05-22T01:27:11.830Z,22.90
2023-05-22T01:30:04.503Z,22.73
2023-05-22T01:32:32.468Z,23.35
2023-05-22T01:35:02.606Z,24.05
2023-05-22T01:37:29.631Z,23.25
2023-05-22T01:39:56.807Z,25.53
2023-05-22T01:42:24.298Z,26.75
2023-05-22T01:44:51.414Z,26.15
2023-05-22T01:47:18.763Z,26.35
2023-05-22T01:49:47.438Z,28.15
2023-05-22T01:52:21.257Z,27.27
2023-05-22T01:55:03.830Z,28.42
2023-05-22T01:57:51.478Z,27.98
2023-05-22T02:00:21.591Z,27.77
2023-05-22T02:02:51.440Z,28.52
2023-05-22T02:05:21.394Z,29.20
2023-05-22T02:07:49.306Z,29.45
2023-05-22T02:10:16.910Z,29.55
2023-05-22T02:12:44.050Z,30.55
2023-05-22T02:15:11.659Z,31.10
2023-05-22T02:17:44.027Z,30.02
2023-05-22T02:20:15.790Z,29.95
2023-05-22T02:22:47.185Z,30.13
2023-05-22T02:25:16.864Z,29.02
2023-05-22T02:27:45.773Z,30.05
2023-05-22T02:30:13.761Z,30.40
2023-05-22T02:32:44.294Z,31.52
2023-05-22T02:35:11.112Z,33.05
2023-05-22T02:37:38.358Z,31.90
2023-05-22T02:40:07.948Z,33.30
2023-05-22T02:42:35.154Z,33.28
2023-05-22T02:45:03.047Z,32.72
2023-05-22T02:47:30.068Z,30.85
2023-05-22T02:49:58.152Z,30.57
2023-05-22T02:52:26.261Z,31.55
2023-05-22T02:54:54.449Z,31.08
2023-05-22T02:57:21.136Z,30.83
2023-05-22T02:59:47.996Z,31.83
2023-05-22T03:02:15.616Z,33.77
2023-05-22T03:04:43.764Z,31.45
2023-05-22T03:07:10.453Z,33.63
2023-05-22T03:09:37.463Z,34.15
2023-05-22T03:12:05.266Z,35.13
2023-05-22T03:17:01.449Z,33.38
2023-05-22T03:19:30.686Z,35.38
2023-05-22T03:21:57.787Z,34.78
2023-05-22T03:24:24.487Z,36.22
2023-05-22T03:26:51.161Z,36.88
2023-05-22T03:29:17.866Z,36.70
2023-05-22T03:31:44.911Z,35.50
2023-05-22T03:34:11.617Z,36.03
2023-05-22T03:36:38.623Z,34.92
2023-05-22T03:39:05.688Z,34.78
2023-05-22T03:41:32.343Z,37.90
2023-05-22T03:43:59.861Z,34.75
2023-05-22T03:46:26.826Z,35.00
2023-05-22T03:48:53.697Z,37.33
2023-05-22T03:51:21.481Z,36.83
2023-05-22T03:53:49.459Z,34.78
2023-05-22T03:56:18.483Z,35.58
2023-05-22T03:58:45.146Z,35.08
2023-05-22T04:01:14.015Z,34.53
2023-05-22T04:03:40.872Z,34.53
2023-05-22T04:06:07.824Z,38.13
2023-05-22T04:08:34.894Z,39.60
2023-05-22T04:11:02.951Z,40.88
2023-05-22T04:13:31.152Z,39.60
2023-05-22T04:15:58.062Z,38.38
2023-05-22T04:18:26.318Z,37.70
2023-05-22T04:20:53.012Z,37.72
2023-05-22T04:23:20.681Z,35.75
2023-05-22T04:25:48.676Z,35.97
2023-05-22T04:28:22.763Z,37.05
2023-05-22T04:30:51.480Z,37.35
2023-05-22T04:33:18.299Z,36.03
2023-05-22T04:35:45.053Z,35.80
2023-05-22T04:38:13.209Z,35.13
2023-05-22T04:40:40.330Z,34.17
2023-05-22T04:43:07.984Z,34.63
2023-05-22T04:45:36.375Z,33.67
2023-05-22T04:48:03.260Z,33.38
2023-05-22T04:50:33.041Z,34.43
2023-05-22T04:53:04.623Z,33.90
2023-05-22T04:55:34.252Z,37.25
2023-05-22T04:58:02.667Z,34.95
2023-05-22T05:00:29.450Z,35.00
2023-05-22T05:02:57.581Z,34.97
2023-05-22T05:05:24.662Z,33.42
2023-05-22T05:07:51.952Z,32.47
2023-05-22T05:10:19.052Z,31.73
2023-05-22T05:12:45.815Z,30.08
2023-05-22T05:15:12.766Z,28.83
2023-05-22T05:17:39.473Z,27.03
2023-05-22T05:20:07.731Z,27.75
2023-05-22T05:22:34.807Z,28.98
2023-05-22T05:25:01.918Z,29.20
2023-05-22T05:27:28.663Z,29.40
2023-05-22T05:29:55.260Z,29.87
2023-05-22T05:32:22.393Z,30.35
2023-05-22T05:34:49.293Z,30.20
2023-05-22T05:37:16.054Z,32.85
2023-05-22T05:39:43.037Z,30.30
2023-05-22T05:42:10.195Z,31.97
2023-05-22T05:44:36.871Z,32.10
2023-05-22T05:47:03.595Z,32.42
2023-05-22T05:49:30.265Z,32.45
2023-05-22T05:51:57.124Z,30.52
2023-05-22T05:54:26.601Z,33.67
2023-05-22T05:56:53.341Z,31.92
2023-05-22T05:59:19.978Z,35.27
2023-05-22T06:01:47.566Z,36.42
2023-05-22T06:04:14.712Z,29.30
2023-05-22T06:06:42.609Z,37.97
2023-05-22T06:09:10.406Z,39.35
2023-05-22T06:11:37.554Z,38.78
2023-05-22T06:14:07.197Z,43.08
2023-05-22T06:16:35.668Z,42.08
2023-05-22T06:19:02.431Z,40.75
2023-05-22T06:21:29.171Z,42.87
2023-05-22T06:23:55.840Z,43.45
2023-05-22T06:26:23.677Z,41.80
2023-05-22T06:28:51.978Z,38.72
2023-05-22T06:57:48.311Z,49.38
2023-05-22T07:00:15.574Z,51.42
2023-05-22T07:02:42.642Z,49.85
2023-05-22T07:05:09.986Z,49.92
2023-05-22T07:07:36.840Z,50.72
2023-05-22T07:10:05.368Z,55.17
2023-05-22T07:12:32.163Z,54.38
2023-05-22T07:15:00.374Z,55.87
2023-05-22T07:17:27.405Z,54.97
2023-05-22T07:19:54.226Z,50.10
2023-05-22T07:22:21.595Z,53.27
2023-05-22T07:24:48.260Z,50.75
2023-05-22T07:27:15.051Z,52.40
2023-05-22T07:29:42.808Z,52.73
2023-05-22T07:34:36.686Z,51.80
2023-05-22T07:37:13.099Z,53.77
2023-05-22T07:39:40.212Z,54.92
2023-05-22T07:42:07.665Z,56.33
2023-05-22T07:44:34.573Z,54.22
2023-05-22T07:47:01.656Z,53.53
2023-05-22T07:49:28.463Z,51.97
2023-05-22T07:51:55.678Z,53.23
2023-05-22T07:54:22.421Z,53.67
2023-05-22T07:56:49.757Z,50.93
2023-05-22T07:59:19.698Z,51.78
2023-05-22T08:01:48.035Z,53.13
2023-05-22T08:04:14.983Z,52.25
2023-05-22T08:06:44.213Z,52.45
2023-05-22T08:09:11.124Z,51.88
2023-05-22T08:11:42.297Z,50.13
2023-05-22T08:14:11.152Z,45.00
2023-05-22T08:16:40.431Z,51.25
2023-05-22T08:19:08.122Z,51.05
2023-05-22T08:24:05.086Z,48.35
2023-05-22T08:26:34.569Z,49.85
2023-05-22T08:29:01.588Z,50.05
2023-05-22T08:31:29.814Z,51.15
2023-05-22T08:34:03.027Z,52.70
2023-05-22T08:36:31.852Z,54.45
2023-05-22T08:38:58.555Z,50.78
2023-05-22T08:41:25.344Z,52.53
2023-05-22T08:43:52.068Z,49.67
2023-05-22T08:46:20.234Z,45.90
2023-05-22T08:48:47.999Z,47.53
2023-05-22T08:51:19.646Z,46.95
2023-05-22T08:53:51.728Z,45.30
2023-05-22T08:56:19.028Z,49.42
2023-05-22T08:58:46.786Z,56.05
2023-05-22T09:01:14.537Z,54.47
2023-05-22T09:03:41.405Z,58.28
2023-05-22T09:06:10.593Z,60.67
2023-05-22T09:08:38.777Z,57.30
2023-05-22T09:11:05.767Z,56.63
2023-05-22T09:13:32.457Z,56.97
2023-05-22T09:16:09.809Z,55.37
2023-05-22T09:18:37.991Z,55.13
2023-05-22T09:21:11.360Z,54.42
2023-05-22T09:23:41.916Z,53.77
2023-05-22T09:26:09.824Z,53.95
2023-05-22T09:28:37.658Z,54.55
2023-05-22T09:31:04.781Z,51.13
2023-05-22T09:33:32.567Z,50.03
2023-05-22T09:35:59.803Z,51.55
2023-05-22T09:38:30.963Z,50.80
2023-05-22T09:40:58.979Z,54.28
2023-05-22T09:43:26.937Z,49.85
2023-05-22T09:46:06.951Z,50.22
2023-05-22T09:48:37.720Z,45.28
2023-05-22T09:51:08.084Z,47.15
2023-05-22T09:53:35.309Z,45.92
2023-05-22T09:56:05.678Z,47.17
2023-05-22T09:58:35.419Z,43.13
2023-05-22T10:01:04.419Z,37.28
2023-05-22T10:03:31.963Z,39.25
2023-05-22T10:05:58.973Z,39.95
2023-05-22T10:08:28.942Z,39.95
2023-05-22T10:10:56.215Z,43.47
2023-05-22T10:13:25.416Z,41.38
2023-05-22T10:15:55.201Z,45.92
2023-05-22T10:18:22.178Z,41.63
2023-05-22T10:20:50.583Z,43.03
2023-05-22T10:23:17.779Z,40.60
2023-05-22T10:25:46.046Z,42.40
2023-05-22T10:28:29.033Z,45.30
2023-05-22T10:31:09.348Z,42.63
2023-05-22T10:33:48.116Z,43.50
2023-05-22T10:36:23.993Z,40.95
2023-05-22T10:39:13.375Z,43.78
2023-05-22T10:41:46.605Z,41.63
2023-05-22T10:44:18.894Z,42.55
2023-05-22T10:46:51.769Z,37.58
2023-05-22T10:49:26.771Z,40.83
2023-05-22T10:52:00.882Z,45.15
2023-05-22T10:54:58.992Z,45.33
2023-05-22T10:57:32.490Z,40.13
2023-05-22T11:00:16.664Z,41.95
2023-05-22T11:02:46.629Z,40.28
2023-05-22T11:05:21.809Z,36.17
2023-05-22T11:08:23.955Z,42.20
2023-05-22T11:11:12.309Z,35.55
2023-05-22T11:13:51.443Z,37.72
2023-05-22T11:16:19.670Z,42.47
2023-05-22T11:18:51.037Z,40.85
2023-05-22T11:21:20.195Z,37.33
2023-05-22T11:24:09.874Z,37.95
2023-05-22T11:26:39.822Z,23.70
2023-05-22T11:29:12.570Z,36.03
2023-05-22T11:31:51.576Z,43.38
2023-05-22T11:34:21.272Z,41.72
2023-05-22T11:36:56.858Z,42.40
2023-05-22T11:39:24.095Z,38.28
2023-05-22T11:41:54.532Z,41.00
2023-05-22T11:44:31.737Z,41.15
2023-05-22T11:47:01.125Z,39.30
2023-05-22T11:49:28.070Z,42.95
2023-05-22T11:51:58.329Z,42.10
2023-05-22T11:54:35.827Z,38.67
2023-05-22T11:57:08.888Z,32.20
2023-05-22T11:59:46.287Z,40.33
2023-05-22T12:02:20.744Z,41.92
2023-05-22T12:04:57.161Z,43.08
2023-05-22T12:07:32.842Z,31.50
2023-05-22T12:10:08.872Z,41.28
2023-05-22T12:12:41.530Z,39.60
2023-05-22T12:15:12.899Z,37.78
2023-05-22T12:17:41.987Z,40.50
2023-05-22T12:20:19.473Z,43.55
2023-05-22T12:22:47.655Z,39.00
2023-05-22T12:25:24.636Z,40.72
2023-05-22T12:27:51.791Z,39.58
2023-05-22T12:30:37.794Z,39.47
2023-05-22T12:33:04.991Z,35.08
2023-05-22T12:35:31.818Z,36.47
2023-05-22T12:37:58.630Z,40.17
2023-05-22T12:40:25.434Z,41.42
2023-05-22T12:42:52.645Z,32.45
2023-05-22T12:45:21.287Z,39.67
2023-05-22T12:47:48.175Z,39.83
2023-05-22T12:50:15.072Z,37.88
2023-05-22T12:52:41.741Z,36.00
2023-05-22T12:55:10.785Z,37.35
2023-05-22T12:57:37.411Z,40.53
2023-05-22T13:00:09.037Z,36.97
2023-05-22T13:02:44.607Z,38.88
2023-05-22T13:05:11.413Z,35.08
2023-05-22T13:07:38.229Z,36.67
2023-05-22T13:10:07.675Z,38.40
2023-05-22T13:12:34.758Z,39.25
2023-05-22T13:15:03.176Z,37.30
2023-05-22T13:17:29.822Z,36.78
2023-05-22T13:19:58.263Z,33.05
2023-05-22T13:22:25.389Z,33.33
2023-05-22T13:24:54.735Z,32.30
2023-05-22T13:27:23.391Z,34.65
2023-05-22T13:29:50.162Z,37.35
2023-05-22T13:32:20.012Z,33.00
2023-05-22T13:34:46.762Z,35.22
2023-05-22T13:37:13.843Z,34.00
2023-05-22T13:39:41.185Z,36.58
2023-05-22T13:42:08.787Z,34.88
2023-05-22T13:44:35.644Z,36.00
2023-05-22T13:47:02.360Z,37.80
2023-05-22T13:49:29.160Z,35.95
2023-05-22T13:51:55.831Z,33.85
2023-05-22T13:54:22.538Z,36.67
2023-05-22T13:56:51.355Z,38.08
2023-05-22T13:59:17.974Z,33.63
2023-05-22T14:01:44.780Z,37.35
2023-05-22T14:04:11.444Z,32.53
2023-05-22T14:06:38.080Z,37.63
2023-05-22T14:09:07.338Z,31.38
2023-05-22T14:11:34.560Z,37.53
2023-05-22T14:16:32.404Z,36.75
2023-05-22T14:19:00.746Z,35.65
2023-05-22T14:21:28.066Z,37.70
2023-05-22T14:23:55.009Z,40.53
2023-05-22T14:26:21.729Z,41.08
2023-05-22T14:28:48.714Z,33.22
2023-05-22T14:31:15.482Z,28.67
2023-05-22T14:33:42.142Z,36.60
2023-05-22T14:36:08.784Z,36.60
2023-05-22T14:38:36.258Z,38.08
2023-05-22T14:41:03.211Z,41.72
2023-05-22T14:43:31.366Z,38.83
2023-05-22T14:45:59.331Z,35.00
2023-05-22T14:48:29.518Z,36.88
2023-05-22T14:50:58.624Z,35.72
2023-05-22T14:53:26.506Z,32.03
2023-05-22T14:55:53.886Z,35.17
2023-05-22T14:58:35.321Z,34.35
2023-05-22T15:01:03.407Z,35.50
2023-05-22T15:03:31.274Z,37.90
2023-05-22T15:06:03.901Z,36.88
2023-05-22T15:08:33.227Z,38.35
2023-05-22T15:10:59.840Z,39.13
2023-05-22T15:16:08.387Z,38.58
2023-05-22T15:21:15.581Z,36.30
2023-05-22T15:23:42.463Z,40.03
2023-05-22T15:26:16.785Z,36.65
2023-05-22T15:28:43.585Z,34.97
2023-05-22T15:33:52.643Z,37.88
2023-05-22T15:36:22.005Z,40.90
2023-05-22T15:39:13.515Z,38.45
2023-05-22T15:41:51.689Z,34.08
2023-05-22T15:47:07.179Z,40.88
2023-05-22T15:49:41.529Z,36.38
2023-05-22T15:52:09.867Z,39.42
2023-05-22T15:54:37.577Z,35.47
2023-05-22T15:57:04.725Z,39.67
2023-05-22T15:59:31.366Z,35.90
2023-05-22T16:01:58.216Z,38.77
2023-05-22T16:07:07.504Z,42.97
2023-05-22T16:12:15.748Z,36.28
2023-05-22T16:14:42.399Z,39.13
2023-05-22T16:17:16.916Z,44.10
2023-05-22T16:19:44.944Z,42.33
2023-05-22T16:22:11.741Z,45.45
2023-05-22T16:24:43.193Z,35.83
2023-05-22T16:27:09.863Z,44.92
2023-05-22T16:29:37.306Z,38.42
2023-05-22T16:32:05.594Z,40.13
2023-05-22T16:34:35.022Z,44.42
2023-05-22T16:37:01.728Z,42.63
2023-05-22T16:39:30.475Z,40.35
2023-05-22T16:44:39.455Z,45.92
2023-05-22T16:47:13.910Z,44.70
2023-05-22T16:49:41.911Z,39.83
2023-05-22T16:52:10.087Z,42.55
2023-05-22T16:54:39.416Z,44.20
2023-05-22T16:57:13.346Z,46.63
2023-05-22T17:02:21.772Z,48.65
2023-05-22T17:04:50.865Z,36.33
2023-05-22T17:07:17.476Z,43.47
2023-05-22T17:09:44.123Z,41.67
2023-05-22T17:12:18.160Z,44.57
2023-05-22T17:14:44.838Z,42.03
2023-05-22T17:17:11.624Z,40.90
2023-05-22T17:19:38.320Z,41.17
2023-05-22T17:22:05.157Z,39.67
2023-05-22T17:24:32.161Z,35.97
2023-05-22T17:26:58.803Z,39.65
2023-05-22T17:29:27.997Z,35.83
2023-05-22T17:31:55.309Z,46.10
2023-05-22T17:34:22.316Z,40.80
2023-05-22T17:36:51.148Z,37.75
2023-05-22T17:39:18.800Z,35.95
2023-05-22T17:41:45.717Z,36.75
2023-05-22T17:44:12.452Z,38.05
2023-05-22T17:46:40.227Z,41.93
2023-05-22T17:51:47.974Z,34.90
2023-05-22T17:58:40.961Z,36.50
2023-05-22T18:03:35.005Z,28.52
2023-05-22T18:06:01.849Z,28.75
2023-05-22T18:08:28.670Z,30.43
2023-05-22T18:10:57.513Z,18.77
2023-05-22T18:13:24.299Z,17.95
2023-05-22T18:15:51.943Z,15.63
2023-05-22T18:18:18.863Z,14.00
2023-05-22T18:20:46.553Z,15.52
2023-05-22T18:23:13.261Z,15.02
2023-05-22T18:25:40.026Z,12.00
2023-05-22T18:28:06.988Z,13.67
2023-05-22T18:30:33.796Z,12.32
2023-05-22T18:33:01.031Z,13.40
2023-05-22T18:35:27.858Z,12.25
2023-05-22T18:37:54.665Z,11.75
2023-05-22T18:40:21.530Z,11.87
2023-05-22T18:42:48.428Z,11.48
2023-05-22T18:45:15.446Z,11.45
2023-05-22T18:47:42.326Z,10.50
2023-05-22T18:50:09.542Z,12.20
2023-05-22T18:52:36.512Z,11.80
2023-05-22T18:55:03.385Z,11.30
2023-05-22T18:57:30.338Z,12.63
2023-05-22T18:59:57.233Z,12.02
2023-05-22T19:02:24.113Z,11.60
2023-05-22T19:04:51.266Z,12.03
2023-05-22T19:07:18.194Z,14.30
2023-05-22T19:09:45.011Z,12.87
2023-05-22T19:12:11.908Z,13.03
2023-05-22T19:14:38.738Z,12.90
2023-05-22T19:17:05.878Z,13.17
2023-05-22T19:19:32.810Z,13.70
2023-05-22T19:21:59.546Z,12.85
2023-05-22T19:24:27.368Z,13.07
2023-05-22T19:26:54.149Z,12.25
2023-05-22T19:29:22.294Z,13.33
2023-05-22T19:31:49.148Z,14.90
2023-05-22T19:34:16.045Z,14.40
2023-05-22T19:36:43.432Z,14.17
2023-05-22T19:39:10.432Z,13.75
2023-05-22T19:41:37.493Z,14.98
2023-05-22T19:44:04.251Z,14.55
2023-05-22T19:46:34.086Z,14.60
2023-05-22T19:49:01.071Z,14.45
2023-05-22T19:51:28.197Z,14.23
2023-05-22T19:53:55.207Z,14.38
2023-05-22T19:56:21.966Z,14.25
2023-05-22T19:58:48.734Z,14.77
2023-05-22T20:01:17.433Z,15.33
2023-05-22T20:03:44.564Z,15.45
2023-05-22T20:06:12.642Z,15.25
2023-05-22T20:08:41.506Z,15.10
2023-05-22T20:11:08.797Z,16.75
2023-05-22T20:13:35.781Z,15.07
2023-05-22T20:16:03.814Z,15.73
2023-05-22T20:18:36.306Z,15.57
2023-05-22T20:21:03.216Z,16.65
2023-05-22T20:23:30.003Z,16.70
2023-05-22T20:25:56.863Z,17.30
2023-05-22T20:28:23.696Z,16.60
2023-05-22T20:30:59.836Z,15.93
2023-05-22T20:33:28.063Z,16.60
2023-05-22T20:35:54.960Z,16.25
2023-05-22T20:38:24.110Z,15.93
2023-05-22T20:40:52.082Z,17.20
2023-05-22T20:43:19.296Z,16.60
2023-05-22T20:45:47.025Z,17.20
2023-05-22T20:48:13.997Z,17.70
2023-05-22T20:50:42.408Z,18.05
2023-05-22T20:53:09.182Z,17.17
2023-05-22T20:55:36.004Z,17.63
2023-05-22T20:58:02.912Z,17.10
2023-05-22T21:00:30.165Z,17.77
2023-05-22T21:02:58.398Z,16.30
2023-05-22T21:05:26.086Z,16.30
2023-05-22T21:07:52.829Z,16.95
2023-05-22T21:10:19.559Z,16.03
2023-05-22T21:12:46.392Z,16.03
2023-05-22T21:15:13.143Z,15.17
2023-05-22T21:17:40.123Z,14.50
2023-05-22T21:20:07.325Z,14.18
2023-05-22T21:22:34.117Z,12.80
2023-05-22T21:25:00.844Z,11.67
2023-05-22T21:27:27.708Z,11.55
2023-05-22T21:29:54.408Z,11.17
2023-05-22T21:32:21.344Z,9.95
2023-05-22T21:34:50.787Z,9.47
2023-05-22T21:37:17.524Z,10.00
2023-05-22T21:39:44.442Z,9.33
2023-05-22T21:42:15.010Z,9.00
2023-05-22T21:44:41.709Z,8.70
2023-05-22T21:47:08.989Z,8.98
2023-05-22T21:49:37.976Z,8.43
2023-05-22T21:52:06.211Z,8.00
2023-05-22T21:54:32.871Z,7.83
2023-05-22T21:56:59.855Z,8.88
2023-05-22T21:59:26.748Z,8.77
2023-05-22T22:01:53.566Z,7.70
2023-05-22T22:04:20.383Z,7.60
2023-05-22T22:06:47.145Z,8.82
2023-05-22T22:09:13.918Z,9.03
2023-05-22T22:11:40.752Z,8.83
2023-05-22T22:14:07.571Z,8.63
2023-05-22T22:16:36.161Z,8.33
2023-05-22T22:19:03.501Z,9.27
2023-05-22T22:21:30.704Z,9.10
2023-05-22T22:23:57.618Z,9.87
2023-05-22T22:26:24.472Z,9.33
2023-05-22T22:28:51.602Z,10.13
2023-05-22T22:31:18.461Z,9.77
2023-05-22T22:33:45.233Z,9.70
2023-05-22T22:36:12.023Z,9.38
2023-05-22T22:38:39.134Z,9.30
2023-05-22T22:41:08.843Z,8.52
2023-05-22T22:43:36.201Z,9.50
2023-05-22T22:46:02.941Z,8.90
2023-05-22T22:48:29.887Z,8.60
2023-05-22T22:50:56.761Z,8.77
2023-05-22T22:53:23.632Z,9.10
2023-05-22T22:55:55.354Z,9.02
2023-05-22T22:58:22.703Z,8.45
2023-05-22T23:00:49.443Z,9.38
2023-05-22T23:03:16.344Z,9.75
2023-05-22T23:05:43.312Z,10.80
2023-05-22T23:08:10.294Z,9.85
2023-05-22T23:10:37.062Z,8.90
2023-05-22T23:13:05.009Z,10.17
2023-05-22T23:15:32.358Z,9.55
2023-05-22T23:17:59.252Z,9.20
2023-05-22T23:20:26.074Z,9.13
2023-05-22T23:22:52.863Z,9.53
2023-05-22T23:25:19.757Z,9.23
2023-05-22T23:27:46.827Z,9.63
2023-05-22T23:30:13.722Z,9.77
2023-05-22T23:32:40.534Z,10.73
2023-05-22T23:35:09.774Z,10.30
2023-05-22T23:37:36.660Z,10.48
2023-05-22T23:40:05.264Z,10.80
2023-05-22T23:42:33.057Z,10.25
2023-05-22T23:44:59.780Z,10.88
2023-05-22T23:47:26.734Z,11.23
2023-05-22T23:49:55.494Z,10.80
2023-05-22T23:52:22.833Z,10.60
2023-05-22T23:54:49.673Z,10.80
